[jhb_airlines] Re: FSX multiplayer - the easy way.

  • From: Gerry Winskill <gwinsk@xxxxxxx>
  • To: jhb_airlines@xxxxxxxxxxxxx
  • Date: Thu, 23 Nov 2006 18:32:39 +0000

It's bad enough to tempt me. I'll finish my FSX flight first.

Gerry Winskill


Bones wrote:

I was going to log on but I had the Irish AIP data to transcribe and that was a sod of a job. I'll log on tonight if anyone wishes to fly but it's an 'orrible evening over here with winds rising to gale force tonight. I notice there is a 23mb variation between Scotland 965mb and London 988mb.. METAR EGNS 231750Z 25031G41KT 9999 FEW025 SCT035 10/04 Q0975 NOSIG

TAF EGNS 231500Z 231622 24030G45KT 9999 SCT025

bones

    -----Original Message-----
    *From:* jhb_airlines-bounce@xxxxxxxxxxxxx
    [mailto:jhb_airlines-bounce@xxxxxxxxxxxxx] *On Behalf Of
    *FrankTurley@xxxxxxx
    *Sent:* 23 November 2006 18:10
    *To:* jhb_airlines@xxxxxxxxxxxxx
    *Subject:* [jhb_airlines] Re: FSX multiplayer - the easy way.

    In a message dated 23/11/2006 17:23:07 GMT Standard Time,
    pdodds@xxxxxxxxxxxxx writes:

        (it has all gone strangely quiet in there!)

    Yes Wednesday nights seem to have evaporated, or did I miss something?
Frank T.



Other related posts: